Time;durP1;ratioP1;P1;durP2;ratioP2;P2;SDS_P1;SDS_P2;PMS_P1;PMS_P2;Temp;Humidity;BMP_temperature;BMP_pressure;BME280_temperature;BME280_humidity;BME280_pressure;Samples;Min_cycle;Max_cycle;Signal;HPM_P1;HPM_P2
2023/08/17 00:00:03;;;;;;;;;;;;;;;25.89;55.24;99514.66;302605;32;4593;-75
2023/08/17 00:00:14;;;;;;;;;;;;;;;25.87;55.01;99509.47;300295;32;5206;-75
2023/08/17 00:00:24;;;;;;;;;;;;;;;25.85;54.88;99512.31;300635;32;6423;-75
2023/08/17 00:00:34;;;;;;;;;;;;;;;25.86;55.23;99510.47;301191;32;868;-75
2023/08/17 00:00:44;;;;;;;;;;;;;;;25.85;55.31;99512.31;301645;32;6897;-75
2023/08/17 00:00:54;;;;;;;;;;;;;;;25.86;55.62;99518.50;300971;32;7240;-75
2023/08/17 00:01:05;;;;;;;;;;;;;;;25.85;55.04;99511.47;303287;32;2665;-75
2023/08/17 00:01:15;;;;;;;;;;;;;;;25.85;55.33;99508.78;305087;32;8443;-75
2023/08/17 00:01:25;;;;;;;;;;;;;;;25.85;55.07;99519.50;302597;32;8906;-75
2023/08/17 00:01:35;;;;;;;;;;;;;;;25.83;55.34;99516.16;302296;32;1178;-75
2023/08/17 00:01:45;;;;;;;;;;;;;;;25.83;55.08;99513.47;297914;32;8105;-75
2023/08/17 00:01:56;;;;;;;;;;;;;;;25.83;55.14;99508.09;296975;32;8151;-75
2023/08/17 00:02:06;;;;;;;;;;;;;;;25.82;54.96;99511.78;299054;33;1288;-75
2023/08/17 00:02:16;;;;;;;;;;;;;;;25.82;54.92;99511.78;300709;32;6385;-75
2023/08/17 00:02:26;;;;;;;;;;;;;;;25.82;55.34;99511.78;298921;32;6740;-75
2023/08/17 00:02:37;;;;;;;;;;;;;;;25.82;55.26;99511.78;299950;32;4617;-75
2023/08/17 00:02:47;;;;;;;;;;;;;;;25.82;54.95;99506.41;297147;33;1130;-75
2023/08/17 00:02:57;;;;;;;;;;;;;;;25.82;55.12;99512.63;295698;33;9614;-75
2023/08/17 00:03:07;;;;;;;;;;;;;;;25.83;55.25;99513.47;292931;33;10639;-75
2023/08/17 00:03:18;;;;;;;;;;;;;;;25.83;55.21;99508.09;294072;33;1315;-75
2023/08/17 00:03:28;;;;;;;;;;;;;;;25.83;55.09;99513.47;290630;33;10674;-75
2023/08/17 00:05:14;;;;;;;;;;;;;;;25.78;55.51;99511.28;2500394;27;19937;-75
2023/08/17 00:05:26;;;;;;;;;;;;;;;25.78;55.21;99511.28;355955;27;796;-75
2023/08/17 00:05:36;;;;;;;;;;;;;;;25.77;55.55;99509.59;354613;27;1299;-75
2023/08/17 00:05:47;;;;;;;;;;;;;;;25.76;55.35;99507.91;353131;28;1176;-75
2023/08/17 00:05:57;;;;;;;;;;;;;;;25.77;55.44;99506.06;351772;28;1465;-75
2023/08/17 00:06:07;;;;;;;;;;;;;;;25.77;55.38;99511.44;351613;28;1346;-75
2023/08/17 00:06:17;;;;;;;;;;;;;;;25.77;55.15;99508.75;350347;28;1216;-75
2023/08/17 00:06:28;;;;;;;;;;;;;;;25.76;55.26;99510.59;348154;28;1762;-75
2023/08/17 00:06:38;;;;;;;;;;;;;;;25.76;55.35;99515.13;347747;28;1014;-75
2023/08/17 00:06:48;;;;;;;;;;;;;;;25.76;55.53;99507.06;347626;28;1264;-75
2023/08/17 00:06:58;;;;;;;;;;;;;;;25.77;55.33;99508.75;348224;28;2704;-75
2023/08/17 00:07:08;;;;;;;;;;;;;;;25.76;55.49;99509.75;350422;28;2466;-74
2023/08/17 00:07:19;;;;;;;;;;;;;;;25.75;55.35;99508.06;350450;28;871;-76
2023/08/17 00:07:29;;;;;;;;;;;;;;;25.74;55.41;99509.06;350225;28;1191;-75
2023/08/17 00:07:39;;;;;;;;;;;;;;;25.74;55.50;99509.91;351775;28;942;-75
2023/08/17 00:07:49;;;;;;;;;;;;;;;25.73;55.69;99508.22;350473;28;749;-75
2023/08/17 00:08:00;;;;;;;;;;;;;;;25.73;55.58;99512.75;350378;28;934;-75
2023/08/17 00:08:10;;;;;;;;;;;;;;;25.72;55.58;99503.03;350802;28;1390;-75
2023/08/17 00:08:21;;;;;;;;;;;;;;;25.73;55.57;99515.44;351906;28;795;-75
2023/08/17 00:08:31;;;;;;;;;;;;;;;25.72;55.48;99506.56;351715;28;1549;-75
2023/08/17 00:08:41;;;;;;;;;;;;;;;25.72;55.73;99505.72;351786;28;974;-75
2023/08/17 00:08:52;;;;;;;;;;;;;;;25.72;55.57;99511.91;348825;28;1311;-75
2023/08/17 00:09:03;;;;;;;;;;;;;;;25.73;55.58;99515.44;346839;28;2732;-75
2023/08/17 00:09:14;;;;;;;;;;;;;;;25.71;55.58;99510.22;347167;28;2492;-75
2023/08/17 00:09:24;;;;;;;;;;;;;;;25.72;55.88;99508.41;347536;28;1421;-75
2023/08/17 00:09:34;;;;;;;;;;;;;;;25.71;55.58;99510.22;349023;28;922;-75
2023/08/17 00:09:44;;;;;;;;;;;;;;;25.72;55.61;99511.06;347549;28;1277;-74
2023/08/17 00:09:55;;;;;;;;;;;;;;;25.73;55.46;99512.75;347883;28;1397;-74
2023/08/17 00:10:05;;;;;;;;;;;;;;;25.72;55.81;99511.06;346247;28;868;-74
2023/08/17 00:10:15;;;;;;;;;;;;;;;25.73;55.83;99507.38;346183;28;1224;-74
2023/08/17 00:10:25;;;;;;;;;;;;;;;25.73;55.57;99502.03;346346;28;785;-74
2023/08/17 00:10:38;;;;;;;;;;;;;;;25.72;55.57;99508.41;347588;28;1355;-74
2023/08/17 00:10:48;;;;;;;;;;;;;;;25.72;55.90;99505.72;346208;28;800;-74
2023/08/17 00:10:59;;;;;;;;;;;;;;;25.73;55.49;99512.75;344163;28;2338;-75
2023/08/17 00:11:09;;;;;;;;;;;;;;;25.73;55.98;99513.59;344740;28;2490;-75
2023/08/17 00:11:19;;;;;;;;;;;;;;;25.73;56.05;99507.38;346127;28;1133;-75
2023/08/17 00:11:29;;;;;;;;;;;;;;;25.73;55.86;99512.75;344795;28;1347;-75
2023/08/17 00:11:39;;;;;;;;;;;;;;;25.73;55.75;99507.38;344093;28;1204;-75
2023/08/17 00:11:50;;;;;;;;;;;;;;;25.73;56.05;99512.75;345784;28;1409;-75
2023/08/17 00:12:00;;;;;;;;;;;;;;;25.72;55.74;99511.06;342045;28;1750;-75
2023/08/17 00:12:10;;;;;;;;;;;;;;;25.72;55.84;99505.72;342034;28;830;-75
2023/08/17 00:12:20;;;;;;;;;;;;;;;25.71;55.96;99510.22;342207;28;905;-75
2023/08/17 00:12:31;;;;;;;;;;;;;;;25.72;55.63;99508.41;343578;28;794;-75
2023/08/17 00:12:41;;;;;;;;;;;;;;;25.71;55.83;99510.22;342114;28;838;-75
2023/08/17 00:12:51;;;;;;;;;;;;;;;25.72;55.80;99508.41;340330;28;1220;-75
2023/08/17 00:13:03;;;;;;;;;;;;;;;25.72;56.03;99514.59;338300;29;2650;-75
2023/08/17 00:13:14;;;;;;;;;;;;;;;25.72;55.87;99508.41;339444;29;1189;-75
2023/08/17 00:13:24;;;;;;;;;;;;;;;25.72;56.15;99511.06;342209;28;1335;-75
2023/08/17 00:13:35;;;;;;;;;;;;;;;25.72;56.17;99511.06;342305;28;1290;-74
2023/08/17 00:13:45;;;;;;;;;;;;;;;25.71;56.17;99514.75;346242;28;1216;-74
2023/08/17 00:13:55;;;;;;;;;;;;;;;25.72;56.12;99511.06;343740;28;1556;-74
2023/08/17 00:14:05;;;;;;;;;;;;;;;25.72;56.03;99511.06;343565;28;1301;-74
2023/08/17 00:14:15;;;;;;;;;;;;;;;25.71;56.02;99515.59;342047;28;805;-74
2023/08/17 00:14:26;;;;;;;;;;;;;;;25.69;56.04;99511.41;341334;28;1497;-74
2023/08/17 00:14:36;;;;;;;;;;;;;;;25.69;56.29;99506.88;341781;28;1320;-74
2023/08/17 00:14:46;;;;;;;;;;;;;;;25.68;56.27;99510.56;340910;29;910;-74
2023/08/17 00:14:56;;;;;;;;;;;;;;;25.69;56.20;99508.72;338097;28;1325;-74
2023/08/17 00:15:07;;;;;;;;;;;;;;;25.70;56.14;99515.75;337532;28;2882;-74
2023/08/17 00:15:17;;;;;;;;;;;;;;;25.69;56.12;99508.72;343494;28;820;-74
2023/08/17 00:15:27;;;;;;;;;;;;;;;25.68;56.25;99505.19;342996;28;1810;-74
2023/08/17 00:15:37;;;;;;;;;;;;;;;25.69;56.46;99511.41;343605;28;1904;-74
2023/08/17 00:15:47;;;;;;;;;;;;;;;25.68;56.26;99512.41;342242;28;1675;-74
2023/08/17 00:15:58;;;;;;;;;;;;;;;25.69;56.42;99516.75;339366;28;1968;-74
2023/08/17 00:16:08;;;;;;;;;;;;;;;25.68;56.25;99515.06;337690;29;2147;-74
2023/08/17 00:16:18;;;;;;;;;;;;;;;25.67;56.36;99518.75;339602;29;857;-75
2023/08/17 00:16:28;;;;;;;;;;;;;;;25.66;56.46;99512.56;340758;29;1391;-75
2023/08/17 00:16:39;;;;;;;;;;;;;;;25.67;56.20;99508.03;341958;28;1411;-75
2023/08/17 00:16:49;;;;;;;;;;;;;;;25.66;56.30;99512.56;343462;28;1113;-75
2023/08/17 00:16:59;;;;;;;;;;;;;;;25.65;56.22;99510.88;342126;28;2514;-75
2023/08/17 00:17:10;;;;;;;;;;;;;;;25.66;56.60;99509.88;341210;28;3040;-75
2023/08/17 00:17:20;;;;;;;;;;;;;;;25.67;56.34;99513.41;340593;28;1950;-75
2023/08/17 00:17:30;;;;;;;;;;;;;;;25.65;56.50;99504.69;339508;29;1222;-75
2023/08/17 00:17:40;;;;;;;;;;;;;;;25.66;56.73;99507.19;334634;29;2446;-75
2023/08/17 00:17:50;;;;;;;;;;;;;;;25.65;56.57;99510.03;332456;29;2421;-75
2023/08/17 00:18:01;;;;;;;;;;;;;;;25.64;56.87;99506.50;334330;29;1193;-75
2023/08/17 00:18:11;;;;;;;;;;;;;;;25.64;56.74;99509.19;334823;29;2612;-75
2023/08/17 00:18:22;;;;;;;;;;;;;;;25.63;56.92;99512.00;332497;29;2674;-75
2023/08/17 00:18:32;;;;;;;;;;;;;;;25.63;56.66;99512.00;333222;29;752;-75
2023/08/17 00:18:42;;;;;;;;;;;;;;;25.62;56.90;99515.69;331429;29;1776;-75
2023/08/17 00:18:52;;;;;;;;;;;;;;;25.62;56.84;99503.13;332676;29;1265;-75
2023/08/17 00:19:03;;;;;;;;;;;;;;;25.61;56.94;99514.84;332969;29;2477;-75
2023/08/17 00:19:13;;;;;;;;;;;;;;;25.61;56.92;99509.50;332514;29;2364;-75
2023/08/17 00:19:23;;;;;;;;;;;;;;;25.62;57.11;99510.31;333934;29;2392;-75
2023/08/17 00:19:33;;;;;;;;;;;;;;;25.62;56.91;99504.97;335274;29;2616;-75
2023/08/17 00:19:44;;;;;;;;;;;;;;;25.61;57.10;99514.00;330579;29;1401;-75
2023/08/17 00:19:54;;;;;;;;;;;;;;;25.61;56.98;99508.66;329820;29;3062;-75
2023/08/17 00:20:05;;;;;;;;;;;;;;;25.61;57.05;99516.69;327019;29;3285;-75
2023/08/17 00:20:15;;;;;;;;;;;;;;;25.60;57.17;99510.50;329308;30;905;-75
2023/08/17 00:20:26;;;;;;;;;;;;;;;25.59;56.94;99506.13;326727;30;3409;-75
2023/08/17 00:20:36;;;;;;;;;;;;;;;25.59;56.91;99506.13;326247;30;3310;-74
2023/08/17 00:20:46;;;;;;;;;;;;;;;25.59;56.88;99507.97;328170;30;809;-74
2023/08/17 00:20:56;;;;;;;;;;;;;;;25.58;56.88;99511.66;326494;30;2487;-74
2023/08/17 00:21:06;;;;;;;;;;;;;;;25.57;56.80;99502.75;323568;30;3787;-75
2023/08/17 00:21:17;;;;;;;;;;;;;;;25.58;57.00;99508.97;323238;30;887;-74
2023/08/17 00:21:28;;;;;;;;;;;;;;;25.58;56.92;99508.97;321586;30;2823;-74
2023/08/17 00:21:38;;;;;;;;;;;;;;;25.58;57.06;99508.97;319492;30;3244;-74
2023/08/17 00:21:48;;;;;;;;;;;;;;;25.58;57.04;99508.97;319667;30;1206;-75
2023/08/17 00:21:58;;;;;;;;;;;;;;;25.58;57.07;99514.31;322457;30;3928;-75
2023/08/17 00:22:08;;;;;;;;;;;;;;;25.58;56.96;99514.31;320645;30;5145;-75
2023/08/17 00:22:19;;;;;;;;;;;;;;;25.57;57.20;99509.97;315581;31;4670;-75
2023/08/17 00:22:29;;;;;;;;;;;;;;;25.58;57.14;99508.97;312970;31;930;-75
2023/08/17 00:22:39;;;;;;;;;;;;;;;25.57;57.09;99509.97;313298;31;4382;-75
2023/08/17 00:22:49;;;;;;;;;;;;;;;25.57;56.83;99507.28;313848;31;4555;-75
2023/08/17 00:23:00;;;;;;;;;;;;;;;25.58;56.88;99511.66;315147;31;2540;-75
2023/08/17 00:23:10;;;;;;;;;;;;;;;25.56;57.14;99511.81;312830;31;3327;-75
2023/08/17 00:23:21;;;;;;;;;;;;;;;25.56;57.20;99509.13;311770;31;3272;-75
2023/08/17 00:23:31;;;;;;;;;;;;;;;25.57;56.89;99515.31;312135;31;1183;-75
2023/08/17 00:23:41;;;;;;;;;;;;;;;25.56;56.81;99511.81;315454;31;4250;-75
2023/08/17 00:23:51;;;;;;;;;;;;;;;25.57;57.04;99512.66;314382;31;4791;-75
2023/08/17 00:24:02;;;;;;;;;;;;;;;25.56;56.99;99511.81;312737;31;1916;-75
2023/08/17 00:24:12;;;;;;;;;;;;;;;25.56;57.04;99511.00;312451;31;5541;-74
2023/08/17 00:24:22;;;;;;;;;;;;;;;25.57;57.09;99507.28;311656;31;6124;-74
2023/08/17 00:24:32;;;;;;;;;;;;;;;25.57;56.86;99513.50;309603;31;1230;-74
2023/08/17 00:24:44;;;;;;;;;;;;;;;25.56;56.98;99509.13;312831;31;6161;-74
2023/08/17 00:24:55;;;;;;;;;;;;;;;25.57;56.98;99512.66;311908;31;5974;-74
2023/08/17 00:25:05;;;;;;;;;;;;;;;25.55;57.00;99510.16;311319;31;6347;-74
2023/08/17 00:25:15;;;;;;;;;;;;;;;25.55;57.13;99514.69;310486;31;1460;-74
2023/08/17 00:25:25;;;;;;;;;;;;;;;25.55;57.20;99509.31;308893;31;4875;-74
2023/08/17 00:25:36;;;;;;;;;;;;;;;25.55;56.98;99509.31;306364;32;5028;-74
2023/08/17 00:25:47;;;;;;;;;;;;;;;25.55;56.82;99510.16;306438;32;1383;-74
2023/08/17 00:25:58;;;;;;;;;;;;;;;25.55;56.85;99509.31;304203;32;6206;-74
2023/08/17 00:26:08;;;;;;;;;;;;;;;25.55;57.25;99512.00;302350;32;6761;-75
2023/08/17 00:26:18;;;;;;;;;;;;;;;25.53;57.11;99510.31;302258;32;971;-75
2023/08/17 00:26:29;;;;;;;;;;;;;;;25.53;57.17;99509.47;300845;32;7300;-75
2023/08/17 00:26:39;;;;;;;;;;;;;;;25.51;57.22;99509.63;299952;32;8616;-75
2023/08/17 00:26:49;;;;;;;;;;;;;;;25.51;56.96;99509.63;299625;32;9021;-75
2023/08/17 00:26:59;;;;;;;;;;;;;;;25.51;57.19;99504.28;298267;33;2633;-75
2023/08/17 00:27:10;;;;;;;;;;;;;;;25.52;56.91;99511.31;296122;33;7919;-75
2023/08/17 00:27:20;;;;;;;;;;;;;;;25.51;57.27;99509.63;295421;33;8685;-75
2023/08/17 00:27:34;;;;;;;;;;;;;;;25.52;57.36;99503.28;296385;33;888;-75
2023/08/17 00:27:44;;;;;;;;;;;;;;;25.51;57.08;99515.00;291315;34;860;-75
2023/08/17 00:27:54;;;;;;;;;;;;;;;25.51;57.30;99512.31;288950;33;6849;-75
2023/08/17 00:28:04;;;;;;;;;;;;;;;25.50;56.99;99513.31;287204;33;8320;-75
2023/08/17 00:28:15;;;;;;;;;;;;;;;25.51;57.19;99509.63;290040;34;1278;-75
2023/08/17 00:28:25;;;;;;;;;;;;;;;25.51;57.20;99514.16;288199;34;9696;-75
2023/08/17 00:30:19;;;;;;;;;;;;;;;25.48;57.27;99512.63;2502960;27;19948;-74
2023/08/17 00:30:29;;;;;;;;;;;;;;;25.48;57.35;99514.47;354467;27;1293;-74
2023/08/17 00:30:39;;;;;;;;;;;;;;;25.47;57.27;99513.63;354602;27;990;-75
2023/08/17 00:30:50;;;;;;;;;;;;;;;25.47;57.35;99512.78;353257;28;863;-75
2023/08/17 00:31:00;;;;;;;;;;;;;;;25.47;57.15;99507.44;350414;28;2605;-75
2023/08/17 00:31:11;;;;;;;;;;;;;;;25.45;57.17;99510.28;349674;28;2656;-75
2023/08/17 00:31:21;;;;;;;;;;;;;;;25.45;57.28;99515.63;349019;28;738;-75
2023/08/17 00:31:31;;;;;;;;;;;;;;;25.44;57.44;99519.31;350313;28;1239;-75
2023/08/17 00:31:41;;;;;;;;;;;;;;;25.43;57.39;99512.28;350366;28;1271;-75
2023/08/17 00:31:52;;;;;;;;;;;;;;;25.44;57.40;99515.78;351783;28;1159;-75
2023/08/17 00:32:03;;;;;;;;;;;;;;;25.43;57.51;99512.28;347420;28;1219;-75
2023/08/17 00:32:13;;;;;;;;;;;;;;;25.43;57.46;99508.75;347372;28;1191;-75
2023/08/17 00:32:23;;;;;;;;;;;;;;;25.43;57.48;99517.63;348988;28;842;-75
2023/08/17 00:32:33;;;;;;;;;;;;;;;25.43;57.39;99506.91;348954;28;1196;-75
2023/08/17 00:32:43;;;;;;;;;;;;;;;25.44;57.73;99513.97;348995;28;884;-75
2023/08/17 00:32:54;;;;;;;;;;;;;;;25.43;57.72;99517.63;349062;28;876;-75
2023/08/17 00:33:04;;;;;;;;;;;;;;;25.43;57.59;99506.91;349775;28;2447;-75
2023/08/17 00:33:14;;;;;;;;;;;;;;;25.42;57.82;99515.94;348913;28;908;-75
2023/08/17 00:33:24;;;;;;;;;;;;;;;25.41;57.72;99514.28;350385;28;866;-75
2023/08/17 00:33:34;;;;;;;;;;;;;;;25.42;57.70;99510.59;350389;28;908;-75
2023/08/17 00:33:45;;;;;;;;;;;;;;;25.41;57.65;99508.91;350289;28;1110;-75
2023/08/17 00:33:55;;;;;;;;;;;;;;;25.42;57.63;99509.75;350190;28;919;-75
2023/08/17 00:34:05;;;;;;;;;;;;;;;25.42;57.76;99510.59;350389;28;1209;-75
2023/08/17 00:34:15;;;;;;;;;;;;;;;25.42;57.87;99509.75;351514;28;1195;-75
2023/08/17 00:34:26;;;;;;;;;;;;;;;25.42;57.75;99510.59;351695;28;954;-75
2023/08/17 00:34:36;;;;;;;;;;;;;;;25.42;57.79;99515.13;350397;28;879;-75
2023/08/17 00:34:46;;;;;;;;;;;;;;;25.41;57.90;99508.91;350323;28;933;-75
2023/08/17 00:34:56;;;;;;;;;;;;;;;25.41;57.99;99510.75;350428;28;910;-75
2023/08/17 00:35:07;;;;;;;;;;;;;;;25.41;57.63;99511.59;345412;28;2655;-75
2023/08/17 00:35:17;;;;;;;;;;;;;;;25.41;57.92;99513.44;346140;28;845;-75
2023/08/17 00:35:27;;;;;;;;;;;;;;;25.39;58.18;99508.22;346088;28;1406;-75
2023/08/17 00:35:37;;;;;;;;;;;;;;;25.39;57.98;99507.41;347678;28;1035;-75
2023/08/17 00:35:48;;;;;;;;;;;;;;;25.39;57.98;99504.72;347577;28;1295;-75
2023/08/17 00:35:58;;;;;;;;;;;;;;;25.38;58.33;99508.38;347329;28;1209;-75
2023/08/17 00:36:08;;;;;;;;;;;;;;;25.38;58.10;99509.22;345911;28;1419;-75
2023/08/17 00:36:19;;;;;;;;;;;;;;;25.36;58.22;99510.38;346288;28;928;-75
2023/08/17 00:36:29;;;;;;;;;;;;;;;25.36;58.30;99516.59;346886;28;946;-75
2023/08/17 00:36:39;;;;;;;;;;;;;;;25.35;58.40;99506.03;347257;28;1142;-75
2023/08/17 00:36:49;;;;;;;;;;;;;;;25.34;58.25;99513.22;346311;28;863;-75
2023/08/17 00:37:00;;;;;;;;;;;;;;;25.33;58.34;99505.34;345241;28;2688;-75
2023/08/17 00:37:10;;;;;;;;;;;;;;;25.33;58.40;99506.19;344319;28;3335;-75
2023/08/17 00:37:20;;;;;;;;;;;;;;;25.33;58.66;99508.03;344782;28;1175;-75
2023/08/17 00:37:30;;;;;;;;;;;;;;;25.34;58.51;99507.88;344859;28;918;-75
2023/08/17 00:37:40;;;;;;;;;;;;;;;25.33;58.33;99506.19;344770;28;1182;-75
2023/08/17 00:37:51;;;;;;;;;;;;;;;25.32;58.49;99501.81;343586;28;808;-75
2023/08/17 00:38:01;;;;;;;;;;;;;;;25.33;58.60;99508.88;343307;28;1260;-75
2023/08/17 00:38:12;;;;;;;;;;;;;;;25.34;58.58;99505.19;342273;28;1427;-75
2023/08/17 00:38:22;;;;;;;;;;;;;;;25.35;58.69;99509.56;344858;28;1280;-75
2023/08/17 00:38:32;;;;;;;;;;;;;;;25.35;58.80;99500.66;345868;28;1391;-75
2023/08/17 00:38:42;;;;;;;;;;;;;;;25.34;58.60;99507.88;344934;28;1799;-75
2023/08/17 00:38:52;;;;;;;;;;;;;;;25.35;58.47;99503.34;342202;28;923;-75
2023/08/17 00:39:03;;;;;;;;;;;;;;;25.35;58.71;99503.34;340889;28;2665;-75
2023/08/17 00:39:14;;;;;;;;;;;;;;;25.35;58.56;99503.34;339243;29;1891;-75
2023/08/17 00:39:24;;;;;;;;;;;;;;;25.34;58.78;99502.50;341123;28;868;-75
2023/08/17 00:39:34;;;;;;;;;;;;;;;25.35;58.75;99506.88;342136;28;1254;-75
2023/08/17 00:39:45;;;;;;;;;;;;;;;25.36;58.77;99505.88;340871;29;856;-75
2023/08/17 00:39:55;;;;;;;;;;;;;;;25.35;58.66;99508.72;339116;29;1021;-75
2023/08/17 00:40:05;;;;;;;;;;;;;;;25.34;58.93;99507.88;336912;29;1195;-75
2023/08/17 00:40:16;;;;;;;;;;;;;;;25.33;59.06;99516.91;339743;29;1392;-75
2023/08/17 00:40:26;;;;;;;;;;;;;;;25.31;59.00;99508.19;338794;28;2530;-75
2023/08/17 00:40:36;;;;;;;;;;;;;;;25.30;59.21;99506.50;337508;29;1240;-75
2023/08/17 00:40:46;;;;;;;;;;;;;;;25.30;59.00;99506.50;340231;29;1947;-75
2023/08/17 00:40:57;;;;;;;;;;;;;;;25.30;58.99;99511.03;340592;29;2449;-75
2023/08/17 00:41:07;;;;;;;;;;;;;;;25.29;58.96;99510.19;337340;29;4103;-75
2023/08/17 00:41:17;;;;;;;;;;;;;;;25.30;59.08;99506.50;339236;29;2158;-75
2023/08/17 00:41:28;;;;;;;;;;;;;;;25.30;59.00;99511.03;336744;29;1574;-75
2023/08/17 00:41:38;;;;;;;;;;;;;;;25.30;59.13;99501.16;335625;29;786;-75
2023/08/17 00:41:49;;;;;;;;;;;;;;;25.30;59.18;99511.88;336900;29;1064;-75
2023/08/17 00:41:59;;;;;;;;;;;;;;;25.30;59.34;99505.66;334776;29;927;-75
2023/08/17 00:42:09;;;;;;;;;;;;;;;25.29;59.43;99517.38;334313;29;2065;-75
2023/08/17 00:42:20;;;;;;;;;;;;;;;25.29;59.38;99506.66;337009;29;830;-75
2023/08/17 00:42:30;;;;;;;;;;;;;;;25.30;59.20;99505.66;338263;28;1991;-75
2023/08/17 00:42:40;;;;;;;;;;;;;;;25.29;59.24;99507.50;339152;28;2366;-75
2023/08/17 00:42:51;;;;;;;;;;;;;;;25.27;59.61;99504.16;334281;29;1376;-75
2023/08/17 00:43:01;;;;;;;;;;;;;;;25.26;59.59;99505.13;337245;29;2846;-75
2023/08/17 00:43:12;;;;;;;;;;;;;;;25.28;59.62;99504.97;335356;29;2626;-75
2023/08/17 00:43:22;;;;;;;;;;;;;;;25.27;59.68;99506.81;334432;29;1169;-75
2023/08/17 00:43:32;;;;;;;;;;;;;;;25.25;59.55;99514.19;334019;29;2733;-75
2023/08/17 00:43:42;;;;;;;;;;;;;;;25.26;59.65;99515.84;332057;29;1862;-75
2023/08/17 00:43:52;;;;;;;;;;;;;;;25.25;59.73;99506.13;334255;29;1321;-74
2023/08/17 00:44:03;;;;;;;;;;;;;;;25.25;59.91;99513.34;337920;29;972;-74
2023/08/17 00:44:13;;;;;;;;;;;;;;;25.23;59.92;99510.81;336967;29;2007;-74
2023/08/17 00:44:23;;;;;;;;;;;;;;;25.23;59.68;99510.81;334672;29;2214;-75
2023/08/17 00:44:34;;;;;;;;;;;;;;;25.22;59.63;99513.66;335699;29;768;-75
2023/08/17 00:44:44;;;;;;;;;;;;;;;25.22;59.78;99514.50;335058;29;2716;-75
2023/08/17 00:44:54;;;;;;;;;;;;;;;25.21;59.73;99512.81;332650;29;2949;-75
2023/08/17 00:45:04;;;;;;;;;;;;;;;25.20;59.80;99517.31;334298;29;2774;-75
2023/08/17 00:45:15;;;;;;;;;;;;;;;25.20;59.65;99511.13;332049;29;3177;-75
2023/08/17 00:45:25;;;;;;;;;;;;;;;25.20;59.79;99511.13;329432;29;3417;-75
2023/08/17 00:45:35;;;;;;;;;;;;;;;25.19;59.53;99514.81;331836;29;836;-76
2023/08/17 00:45:45;;;;;;;;;;;;;;;25.18;59.72;99510.44;330689;29;3435;-75
2023/08/17 00:45:55;;;;;;;;;;;;;;;25.17;59.55;99516.81;329117;29;2460;-75
2023/08/17 00:46:06;;;;;;;;;;;;;;;25.17;59.44;99516.81;329636;29;1451;-75
2023/08/17 00:46:16;;;;;;;;;;;;;;;25.16;59.40;99510.59;324455;30;2068;-75
2023/08/17 00:46:27;;;;;;;;;;;;;;;25.17;59.66;99511.44;324615;30;2652;-75
2023/08/17 00:46:37;;;;;;;;;;;;;;;25.18;59.50;99515.81;325827;30;848;-75
2023/08/17 00:46:48;;;;;;;;;;;;;;;25.17;59.37;99517.66;319008;30;3211;-75
2023/08/17 00:46:58;;;;;;;;;;;;;;;25.17;59.64;99511.44;320624;30;3815;-76
2023/08/17 00:47:08;;;;;;;;;;;;;;;25.18;59.70;99518.47;323562;30;4285;-75
2023/08/17 00:47:18;;;;;;;;;;;;;;;25.18;59.33;99519.31;323427;30;809;-75
2023/08/17 00:47:29;;;;;;;;;;;;;;;25.17;59.51;99511.44;322018;30;4141;-75
2023/08/17 00:47:39;;;;;;;;;;;;;;;25.18;59.27;99515.81;319411;30;4712;-75
2023/08/17 00:47:49;;;;;;;;;;;;;;;25.18;59.32;99518.47;318392;31;1332;-75
2023/08/17 00:47:59;;;;;;;;;;;;;;;25.18;59.30;99513.13;319472;30;4669;-75
2023/08/17 00:48:10;;;;;;;;;;;;;;;25.17;59.55;99517.66;318445;30;3483;-75
2023/08/17 00:48:20;;;;;;;;;;;;;;;25.18;59.54;99515.81;317543;31;1278;-75
2023/08/17 00:48:31;;;;;;;;;;;;;;;25.17;59.37;99512.28;313924;31;3068;-75
2023/08/17 00:48:41;;;;;;;;;;;;;;;25.17;59.39;99523.00;312856;31;3922;-75
2023/08/17 00:48:51;;;;;;;;;;;;;;;25.18;59.50;99507.78;311898;31;1000;-75
2023/08/17 00:49:01;;;;;;;;;;;;;;;25.18;59.54;99518.47;309469;31;5015;-75
2023/08/17 00:49:12;;;;;;;;;;;;;;;25.17;59.53;99511.44;310098;31;5379;-75
2023/08/17 00:49:22;;;;;;;;;;;;;;;25.17;59.38;99519.47;310809;31;820;-75
2023/08/17 00:49:32;;;;;;;;;;;;;;;25.16;59.61;99510.59;306660;31;5898;-75
2023/08/17 00:49:42;;;;;;;;;;;;;;;25.16;59.55;99515.13;307982;31;5906;-75
2023/08/17 00:49:53;;;;;;;;;;;;;;;25.16;59.75;99512.44;309708;31;1352;-75
2023/08/17 00:50:03;;;;;;;;;;;;;;;25.16;59.63;99517.81;308722;31;6723;-75
2023/08/17 00:50:13;;;;;;;;;;;;;;;25.16;59.85;99521.31;308010;31;6776;-75
2023/08/17 00:50:24;;;;;;;;;;;;;;;25.13;59.64;99510.91;306406;32;4923;-74
2023/08/17 00:50:34;;;;;;;;;;;;;;;25.13;59.77;99515.44;305368;32;994;-74
2023/08/17 00:50:45;;;;;;;;;;;;;;;25.13;59.82;99518.97;302751;32;4764;-74
2023/08/17 00:50:55;;;;;;;;;;;;;;;25.11;59.95;99512.94;300092;32;5845;-74
2023/08/17 00:51:05;;;;;;;;;;;;;;;25.09;60.12;99514.09;298125;32;2843;-74
2023/08/17 00:51:16;;;;;;;;;;;;;;;25.08;59.86;99518.63;301923;32;7065;-74
2023/08/17 00:51:26;;;;;;;;;;;;;;;25.09;59.96;99519.47;302125;32;7352;-75
2023/08/17 00:51:36;;;;;;;;;;;;;;;25.10;59.85;99521.16;303235;32;1217;-75
2023/08/17 00:51:46;;;;;;;;;;;;;;;25.09;60.05;99519.47;298297;32;8194;-75
2023/08/17 00:51:56;;;;;;;;;;;;;;;25.10;60.33;99521.16;299012;32;8871;-75
2023/08/17 00:52:07;;;;;;;;;;;;;;;25.09;60.19;99514.09;300074;32;1223;-75
2023/08/17 00:52:17;;;;;;;;;;;;;;;25.07;60.10;99518.78;296913;32;9220;-75
2023/08/17 00:52:27;;;;;;;;;;;;;;;25.06;60.03;99514.41;295372;33;9341;-74
2023/08/17 00:52:37;;;;;;;;;;;;;;;25.06;60.06;99514.41;296159;33;1159;-74
2023/08/17 00:52:48;;;;;;;;;;;;;;;25.06;59.88;99517.09;293366;33;6361;-75
2023/08/17 00:54:26;;;;;;;;;;;;;;;25.04;60.04;99511.06;2502816;27;20847;-75
2023/08/17 00:54:36;;;;;;;;;;;;;;;25.03;59.89;99517.41;354824;27;1240;-75
2023/08/17 00:54:46;;;;;;;;;;;;;;;25.00;59.66;99515.88;353210;28;823;-75
2023/08/17 00:54:56;;;;;;;;;;;;;;;25.02;59.50;99513.03;351761;28;1319;-75
2023/08/17 00:55:07;;;;;;;;;;;;;;;25.01;59.64;99517.56;350658;28;2791;-74
2023/08/17 00:55:17;;;;;;;;;;;;;;;24.99;59.58;99508.00;350210;28;1472;-75
2023/08/17 00:55:27;;;;;;;;;;;;;;;24.99;59.38;99513.38;350353;28;863;-75
2023/08/17 00:55:37;;;;;;;;;;;;;;;24.98;59.52;99512.53;350469;28;998;-75
2023/08/17 00:55:48;;;;;;;;;;;;;;;24.97;59.43;99516.19;348740;28;1481;-75
2023/08/17 00:55:58;;;;;;;;;;;;;;;24.96;59.65;99519.03;351633;28;1249;-75
2023/08/17 00:56:08;;;;;;;;;;;;;;;24.97;59.76;99520.72;351749;28;1052;-74
2023/08/17 00:56:18;;;;;;;;;;;;;;;24.96;59.65;99524.38;350847;28;1225;-74
2023/08/17 00:56:29;;;;;;;;;;;;;;;24.95;59.58;99520.00;351638;28;819;-74
2023/08/17 00:56:39;;;;;;;;;;;;;;;24.94;59.58;99523.66;351736;28;1759;-74
2023/08/17 00:56:49;;;;;;;;;;;;;;;24.93;59.50;99514.78;351064;28;1844;-74
2023/08/17 00:56:59;;;;;;;;;;;;;;;24.94;59.53;99521.84;352049;28;2745;-74
2023/08/17 00:57:10;;;;;;;;;;;;;;;24.93;59.72;99517.47;349871;28;2909;-74
2023/08/17 00:57:20;;;;;;;;;;;;;;;24.93;59.45;99520.16;348986;28;1305;-74
2023/08/17 00:57:31;;;;;;;;;;;;;;;24.94;59.68;99515.63;348939;28;1160;-74
2023/08/17 00:57:41;;;;;;;;;;;;;;;24.92;59.44;99522.97;349008;28;797;-74
2023/08/17 00:57:52;;;;;;;;;;;;;;;24.91;59.68;99523.97;348801;28;1236;-74
2023/08/17 00:58:02;;;;;;;;;;;;;;;24.91;59.52;99516.78;350035;28;1409;-74
2023/08/17 00:58:12;;;;;;;;;;;;;;;24.91;59.55;99521.31;350112;28;1130;-74
2023/08/17 00:58:22;;;;;;;;;;;;;;;24.91;59.89;99519.47;350328;28;1207;-75
2023/08/17 00:58:35;;;;;;;;;;;;;;;24.91;59.91;99519.47;348844;28;1199;-75
2023/08/17 00:58:46;;;;;;;;;;;;;;;24.93;59.86;99519.31;347434;28;1228;-75
2023/08/17 00:58:56;;;;;;;;;;;;;;;24.92;59.73;99521.16;344972;28;843;-75
2023/08/17 00:59:06;;;;;;;;;;;;;;;24.92;59.92;99520.31;345283;28;2630;-75
2023/08/17 00:59:16;;;;;;;;;;;;;;;24.91;59.75;99522.16;346045;28;1323;-75
2023/08/17 00:59:26;;;;;;;;;;;;;;;24.92;59.73;99522.97;347633;28;899;-75
2023/08/17 00:59:37;;;;;;;;;;;;;;;24.92;59.63;99521.16;346096;28;1343;-75
2023/08/17 00:59:47;;;;;;;;;;;;;;;24.91;59.96;99522.16;347622;28;929;-75
2023/08/17 00:59:58;;;;;;;;;;;;;;;24.92;59.94;99522.97;350123;28;1422;-75
2023/08/17 01:00:08;;;;;;;;;;;;;;;24.92;59.83;99522.97;347527;28;808;-75